Time;durP1;ratioP1;P1;durP2;ratioP2;P2;SDS_P1;SDS_P2;PMS_P1;PMS_P2;Temp;Humidity;BMP_temperature;BMP_pressure;BME280_temperature;BME280_humidity;BME280_pressure;Samples;Min_cycle;Max_cycle;Signal;HPM_P1;HPM_P2
2023/09/10 00:02:13;;;;;;;;;17.00;16.33;;;;;30.30;46.92;101398.59;5099472;27;45645;-77
2023/09/10 00:04:38;;;;;;;;;20.33;19.00;;;;;30.14;47.20;101384.75;5117585;27;46216;-76
2023/09/10 00:07:04;;;;;;;;;21.67;18.67;;;;;30.05;47.58;101380.72;5117773;27;45421;-77
2023/09/10 00:09:29;;;;;;;;;20.00;17.67;;;;;29.98;47.89;101396.06;5117477;27;45470;-76
2023/09/10 00:11:54;;;;;;;;;18.00;17.00;;;;;29.81;48.02;101385.91;5116421;27;45530;-77
2023/09/10 00:14:20;;;;;;;;;23.00;20.00;;;;;29.81;48.09;101392.09;5108872;27;46605;-76
2023/09/10 00:16:45;;;;;;;;;18.00;16.00;;;;;29.68;48.13;101390.31;5096790;27;45432;-76
2023/09/10 00:19:15;;;;;;;;;14.33;14.33;;;;;29.66;48.22;101395.09;5097240;27;45608;-76
2023/09/10 00:21:40;;;;;;;;;18.33;18.33;;;;;29.57;48.30;101397.22;5096898;27;45563;-76
2023/09/10 00:24:06;;;;;;;;;18.00;18.00;;;;;29.40;48.54;101378.19;5096261;27;45516;-76
2023/09/10 00:26:31;;;;;;;;;16.00;16.00;;;;;29.46;48.42;101392.56;5097028;27;45390;-77
2023/09/10 00:28:56;;;;;;;;;16.00;15.33;;;;;29.46;48.94;101403.28;5096908;27;45518;-76
2023/09/10 00:31:22;;;;;;;;;16.00;16.00;;;;;29.39;48.85;101397.97;5129948;27;45709;-76
2023/09/10 00:33:47;;;;;;;;;16.67;16.67;;;;;29.35;48.89;101400.28;5096774;27;46656;-76
2023/09/10 00:36:12;;;;;;;;;20.33;18.00;;;;;29.28;48.83;101402.16;5096747;27;45212;-75
2023/09/10 00:38:38;;;;;;;;;19.00;16.00;;;;;29.21;49.16;101402.22;5096406;27;45346;-76
2023/09/10 00:41:06;;;;;;;;;14.67;14.00;;;;;29.04;49.63;101383.94;5097739;27;45496;-76
2023/09/10 00:43:32;;;;;;;;;18.00;16.50;;;;;29.10;49.39;101392.19;5117412;27;45520;-76
2023/09/10 00:45:57;;;;;;;;;17.33;17.00;;;;;29.13;49.81;101410.50;5116576;27;45453;-77
2023/09/10 00:48:23;;;;;;;;;20.25;19.00;;;;;29.10;49.46;101406.41;5115630;27;45401;-76
2023/09/10 00:50:48;;;;;;;;;17.00;17.00;;;;;29.08;49.96;101408.44;5116713;27;45371;-76
2023/09/10 00:53:14;;;;;;;;;19.00;17.25;;;;;29.00;49.92;101401.47;5115921;27;46176;-76
2023/09/10 00:55:40;;;;;;;;;19.50;19.00;;;;;29.00;49.85;101406.84;5098237;27;45458;-76
2023/09/10 00:58:05;;;;;;;;;17.75;17.75;;;;;28.97;49.53;101399.22;5117158;27;45289;-76
2023/09/10 01:00:32;;;;;;;;;20.75;18.00;;;;;28.98;49.69;101410.78;5116645;27;45631;-76
2023/09/10 01:02:59;;;;;;;;;21.25;18.25;;;;;28.95;49.74;101412.84;5116930;27;45552;-76
2023/09/10 01:05:24;;;;;;;;;21.33;17.00;;;;;28.89;49.96;101410.19;5116576;27;45487;-76
2023/09/10 01:07:50;;;;;;;;;21.00;17.75;;;;;28.84;50.15;101408.16;5116639;27;45833;-76
2023/09/10 01:10:16;;;;;;;;;16.00;15.00;;;;;28.59;49.71;101372.22;5116702;27;45461;-76
2023/09/10 01:13:35;;;;;;;;;17.67;15.67;;;;;28.70;49.37;101394.81;5115594;27;47461;-76
2023/09/10 01:16:11;;;;;;;;;15.33;14.33;;;;;28.63;49.75;101392.19;5032996;28;45301;-75
2023/09/10 01:18:49;;;;;;;;;19.00;18.00;;;;;28.60;49.78;101405.16;5033227;28;45442;-76
2023/09/10 01:21:56;;;;;;;;;19.00;19.00;;;;;28.62;50.03;101411.94;5032451;28;45613;-76
2023/09/10 01:24:39;;;;;;;;;19.50;17.00;;;;;28.59;49.39;101406.22;5024479;28;45659;-76
2023/09/10 01:27:05;;;;;;;;;15.00;14.67;;;;;28.46;49.43;101396.38;5033184;28;45417;-76
2023/09/10 01:29:30;;;;;;;;;16.00;15.00;;;;;28.50;49.01;101408.28;5016336;28;45755;-76
2023/09/10 01:32:00;;;;;;;;;17.67;17.67;;;;;28.46;48.52;101405.22;5015055;28;48777;-76
2023/09/10 01:34:31;;;;;;;;;17.25;16.75;;;;;28.42;48.43;101411.97;5032810;28;46608;-76
2023/09/10 01:37:05;;;;;;;;;16.33;16.33;;;;;28.33;48.08;101392.69;5032419;28;45371;-76
2023/09/10 01:39:37;;;;;;;;;16.00;15.00;;;;;28.25;48.40;101399.06;5033043;28;45459;-76
2023/09/10 01:42:05;;;;;;;;;18.00;17.00;;;;;28.23;48.63;101403.00;5032654;28;45331;-75
2023/09/10 01:44:32;;;;;;;;;15.00;15.00;;;;;28.14;48.81;101399.72;5032695;28;45375;-76
2023/09/10 01:46:58;;;;;;;;;16.00;15.00;;;;;28.07;48.43;101400.56;5032711;28;45447;-75
2023/09/10 01:49:25;;;;;;;;;18.00;17.00;;;;;27.98;48.34;101376.88;5056380;27;45372;-76
2023/09/10 01:51:50;;;;;;;;;15.00;13.33;;;;;28.06;48.22;101392.72;5095474;27;45829;-76
2023/09/10 01:54:15;;;;;;;;;15.25;14.00;;;;;28.07;49.05;101395.22;5095424;27;45637;-76
2023/09/10 01:56:41;;;;;;;;;21.25;17.75;;;;;28.08;49.18;101390.66;5095553;27;45357;-76
2023/09/10 01:59:06;;;;;;;;;16.50;15.50;;;;;28.03;49.29;101390.47;5095629;27;45454;-76
2023/09/10 02:01:32;;;;;;;;;18.33;15.00;;;;;28.04;49.04;101394.78;5095807;27;45335;-76
2023/09/10 02:03:57;;;;;;;;;18.00;16.50;;;;;28.06;49.05;101396.22;5094240;27;46338;-76
2023/09/10 02:06:22;;;;;;;;;15.00;14.33;;;;;28.05;48.34;101397.25;5095369;27;45388;-76
2023/09/10 02:08:47;;;;;;;;;15.00;15.00;;;;;27.98;47.99;101385.75;5095569;27;45376;-76
2023/09/10 02:11:13;;;;;;;;;16.67;16.67;;;;;28.04;48.24;101398.28;5095431;27;45436;-76
2023/09/10 02:13:38;;;;;;;;;19.33;16.00;;;;;27.92;48.47;101375.91;5087681;27;46628;-78
2023/09/10 02:16:04;;;;;;;;;16.00;16.00;;;;;27.80;48.14;101362.31;5116007;27;45497;-78
2023/09/10 02:18:29;;;;;;;;;15.33;14.00;;;;;27.97;48.37;101389.47;5116271;27;45549;-76
2023/09/10 02:20:55;;;;;;;;;19.75;16.50;;;;;27.99;48.14;101378.56;5115819;27;45436;-76
2023/09/10 02:23:20;;;;;;;;;17.00;16.00;;;;;28.14;48.17;101395.19;5099163;27;47236;-76
2023/09/10 02:25:46;;;;;;;;;17.00;15.00;;;;;28.19;48.65;101378.50;5119347;27;45360;-75
2023/09/10 02:28:12;;;;;;;;;16.00;15.00;;;;;28.25;48.63;101374.16;5119600;27;45482;-75
2023/09/10 02:30:37;;;;;;;;;15.33;15.33;;;;;28.35;48.90;101382.59;5119359;27;45366;-76
2023/09/10 02:33:03;;;;;;;;;15.00;14.00;;;;;28.47;48.36;101377.41;5119104;27;47046;-76
2023/09/10 02:35:28;;;;;;;;;15.33;14.67;;;;;28.56;48.41;101383.38;5100504;27;45406;-75
2023/09/10 02:37:54;;;;;;;;;17.75;16.00;;;;;28.65;47.88;101386.59;5119295;27;45337;-76
2023/09/10 02:40:19;;;;;;;;;16.67;16.00;;;;;28.72;47.59;101382.06;5119249;27;45478;-75
2023/09/10 02:42:44;;;;;;;;;17.00;16.33;;;;;28.73;47.72;101370.31;5118985;27;46043;-75
2023/09/10 02:45:11;;;;;;;;;17.25;14.75;;;;;28.85;48.21;101385.72;5119111;27;45387;-76
2023/09/10 02:47:37;;;;;;;;;16.67;16.67;;;;;28.87;47.82;101377.44;5119109;27;45701;-76
2023/09/10 02:50:03;;;;;;;;;15.00;15.00;;;;;28.98;47.34;101384.81;5118629;27;45424;-76
2023/09/10 02:52:30;;;;;;;;;15.67;15.67;;;;;28.95;47.46;101369.16;5118850;27;46736;-75
2023/09/10 02:54:56;;;;;;;;;16.33;16.00;;;;;28.99;47.60;101361.53;5118451;27;45419;-76
2023/09/10 02:57:21;;;;;;;;;15.67;15.33;;;;;29.02;47.45;101356.53;5118955;27;45522;-76
2023/09/10 02:59:47;;;;;;;;;20.00;17.00;;;;;29.12;47.36;101371.38;5118706;27;47716;-76
2023/09/10 03:02:12;;;;;;;;;16.67;15.00;;;;;29.14;47.46;101367.44;5118750;27;46092;-75
2023/09/10 03:04:38;;;;;;;;;14.33;14.33;;;;;29.18;47.44;101360.59;5118390;27;45399;-76
2023/09/10 03:07:03;;;;;;;;;15.33;14.33;;;;;29.21;47.42;101358.50;5119091;27;45355;-76
2023/09/10 03:09:29;;;;;;;;;14.33;12.67;;;;;29.32;47.34;101378.44;5118829;27;45332;-76
2023/09/10 03:12:21;;;;;;;;;18.67;16.67;;;;;29.33;47.56;101372.84;5118648;27;46206;-76
2023/09/10 03:14:46;;;;;;;;;13.67;13.67;;;;;29.28;47.42;101351.25;5100067;27;45483;-76
2023/09/10 03:17:12;;;;;;;;;16.67;16.67;;;;;29.43;47.19;101374.25;5118556;27;45341;-76
2023/09/10 03:19:37;;;;;;;;;20.00;18.00;;;;;29.44;47.29;101357.09;5118362;27;45440;-76
2023/09/10 03:22:03;;;;;;;;;13.67;13.67;;;;;29.44;47.06;101363.28;5118554;27;45805;-76
2023/09/10 03:24:29;;;;;;;;;14.00;14.00;;;;;29.43;47.47;101358.16;5118500;27;45373;-76
2023/09/10 03:26:54;;;;;;;;;15.33;14.67;;;;;29.48;47.26;101364.50;5118573;27;45366;-76
2023/09/10 03:29:20;;;;;;;;;15.00;15.00;;;;;29.51;47.47;101363.22;5117459;27;45393;-76
2023/09/10 03:31:45;;;;;;;;;16.00;16.00;;;;;29.51;47.02;101361.38;5117970;27;46857;-75
2023/09/10 03:34:11;;;;;;;;;14.33;14.33;;;;;29.55;47.35;101371.66;5116364;27;45265;-76
2023/09/10 03:36:36;;;;;;;;;16.75;14.25;;;;;29.57;47.18;101362.34;5118360;27;45299;-76
2023/09/10 03:39:02;;;;;;;;;17.00;16.00;;;;;29.54;47.06;101356.59;5118574;27;45324;-76
2023/09/10 03:41:28;;;;;;;;;14.33;14.33;;;;;29.63;46.95;101368.72;5118039;27;46191;-76
2023/09/10 03:43:55;;;;;;;;;16.00;14.33;;;;;29.62;46.86;101361.69;5118110;27;45318;-76
2023/09/10 03:46:20;;;;;;;;;18.33;16.67;;;;;29.61;46.79;101355.50;5118405;27;45368;-76
2023/09/10 03:48:45;;;;;;;;;15.00;14.00;;;;;29.68;46.70;101354.63;5117578;27;45383;-76
2023/09/10 03:51:11;;;;;;;;;14.00;14.00;;;;;29.65;46.85;101352.38;5099404;27;46061;-76
2023/09/10 03:53:36;;;;;;;;;16.00;13.00;;;;;29.68;46.89;101352.78;5099136;27;45388;-76
2023/09/10 03:56:01;;;;;;;;;15.33;14.33;;;;;29.70;46.88;101353.38;5118177;27;45737;-75
2023/09/10 03:58:27;;;;;;;;;15.67;13.67;;;;;29.74;46.77;101349.22;5117956;27;45340;-75
2023/09/10 04:00:52;;;;;;;;;15.33;15.33;;;;;29.73;46.85;101350.28;5099316;27;46353;-76
2023/09/10 04:03:17;;;;;;;;;14.00;13.33;;;;;29.69;46.74;101343.69;5116726;27;45414;-76
2023/09/10 04:05:43;;;;;;;;;16.33;15.00;;;;;29.71;46.72;101343.47;5117975;27;46016;-76
2023/09/10 04:08:08;;;;;;;;;15.33;15.33;;;;;29.69;46.70;101341.00;5117911;27;45483;-76
2023/09/10 04:10:34;;;;;;;;;14.33;14.33;;;;;29.76;46.78;101340.97;5117565;27;45456;-76
2023/09/10 04:12:59;;;;;;;;;16.00;14.33;;;;;29.77;46.77;101339.91;5117288;27;45294;-76
2023/09/10 04:15:24;;;;;;;;;16.00;15.33;;;;;29.74;46.98;101343.06;5117814;27;45731;-76
2023/09/10 04:17:50;;;;;;;;;15.00;15.00;;;;;29.78;46.91;101340.75;5117365;27;45435;-76
2023/09/10 04:20:15;;;;;;;;;15.00;15.00;;;;;29.81;46.73;101343.81;5117467;27;46502;-76
2023/09/10 04:22:40;;;;;;;;;14.67;14.67;;;;;29.84;46.53;101351.44;5117233;27;45386;-76
2023/09/10 04:25:06;;;;;;;;;14.00;13.67;;;;;29.80;46.88;101339.47;5099127;27;45356;-76
2023/09/10 04:27:31;;;;;;;;;17.00;15.33;;;;;29.87;46.24;101350.16;5117729;27;45458;-76
2023/09/10 04:29:57;;;;;;;;;15.67;15.00;;;;;29.81;46.93;101334.94;5098526;27;55400;-76
2023/09/10 04:32:22;;;;;;;;;14.67;14.67;;;;;29.85;46.99;101341.50;5117237;27;45317;-75
2023/09/10 04:34:48;;;;;;;;;13.00;13.00;;;;;29.90;46.68;101348.91;5117661;27;45423;-76
2023/09/10 04:37:13;;;;;;;;;17.33;16.00;;;;;29.90;46.68;101348.91;5117103;27;45356;-76
2023/09/10 04:39:39;;;;;;;;;15.00;15.00;;;;;29.90;46.96;101347.00;5117239;27;45354;-76
2023/09/10 04:42:04;;;;;;;;;16.33;15.00;;;;;29.89;46.55;101341.88;5117000;27;45694;-76
2023/09/10 04:44:30;;;;;;;;;13.33;12.33;;;;;29.90;46.78;101341.66;5098693;27;45770;-76
2023/09/10 04:46:55;;;;;;;;;10.67;10.67;;;;;29.80;46.85;101318.03;5114597;27;45421;-76
2023/09/10 04:49:20;;;;;;;;;15.00;15.00;;;;;29.91;46.92;101337.94;5098371;27;45475;-76
2023/09/10 04:51:46;;;;;;;;;14.00;12.67;;;;;29.87;46.45;101331.38;5117125;27;45297;-76
2023/09/10 04:54:11;;;;;;;;;14.00;13.33;;;;;29.89;46.59;101337.34;5116898;27;45312;-76
2023/09/10 04:56:36;;;;;;;;;13.67;13.67;;;;;29.84;46.59;101329.16;5116958;27;45517;-76
2023/09/10 04:59:02;;;;;;;;;11.67;11.67;;;;;29.89;46.61;101336.50;5116978;27;50384;-76
2023/09/10 05:01:27;;;;;;;;;15.33;15.33;;;;;29.93;46.53;101341.22;5097980;27;45408;-76
2023/09/10 05:03:52;;;;;;;;;15.00;15.00;;;;;29.94;46.47;101347.41;5117100;27;45388;-75
2023/09/10 05:06:19;;;;;;;;;15.00;14.00;;;;;29.93;46.52;101343.88;5117045;27;45450;-76
2023/09/10 05:08:45;;;;;;;;;13.00;11.67;;;;;29.96;46.23;101348.81;5116731;27;46217;-75
2023/09/10 05:11:10;;;;;;;;;13.00;13.00;;;;;29.89;46.38;101339.19;5116661;27;45416;-76
2023/09/10 05:13:36;;;;;;;;;13.67;13.33;;;;;29.87;46.83;101336.75;5116837;27;45723;-76
2023/09/10 05:16:02;;;;;;;;;15.33;15.33;;;;;29.97;46.53;101349.63;5116441;27;45512;-75
2023/09/10 05:18:27;;;;;;;;;14.00;13.67;;;;;29.99;46.71;101352.91;5116892;27;46395;-76
2023/09/10 05:20:53;;;;;;;;;17.00;16.00;;;;;29.88;46.57;101343.75;5115718;27;45292;-76
2023/09/10 05:23:21;;;;;;;;;13.00;13.00;;;;;29.94;46.46;101348.22;5116866;27;45349;-76
2023/09/10 05:25:47;;;;;;;;;13.67;13.67;;;;;30.01;46.79;101353.50;5116390;27;45346;-76
2023/09/10 05:28:13;;;;;;;;;13.33;13.33;;;;;29.98;46.32;101356.63;5116326;27;45394;-76
2023/09/10 05:30:38;;;;;;;;;13.33;13.33;;;;;29.85;47.28;101328.09;5116310;27;45672;-76
2023/09/10 05:33:04;;;;;;;;;15.00;13.33;;;;;30.00;46.20;101348.38;5116705;27;45437;-76
2023/09/10 05:35:29;;;;;;;;;13.00;11.00;;;;;29.96;46.54;101340.75;5116561;27;45638;-76
2023/09/10 05:37:55;;;;;;;;;13.00;13.00;;;;;30.01;46.68;101355.38;5116262;27;46263;-76
2023/09/10 05:40:20;;;;;;;;;16.00;15.33;;;;;29.98;46.37;101351.25;5116312;27;45425;-76
2023/09/10 05:42:45;;;;;;;;;17.67;14.00;;;;;29.98;46.32;101350.47;5115741;27;45351;-76
2023/09/10 05:45:11;;;;;;;;;12.67;12.67;;;;;30.01;46.84;101350.00;5116068;27;45527;-76
2023/09/10 05:47:36;;;;;;;;;15.67;14.67;;;;;30.04;46.69;101352.25;5115898;27;46252;-76
2023/09/10 05:50:02;;;;;;;;;16.67;12.67;;;;;30.01;46.71;101355.38;5116154;27;45406;-76
2023/09/10 05:52:27;;;;;;;;;16.33;15.33;;;;;30.05;46.99;101365.44;5116463;27;45374;-76
2023/09/10 05:54:53;;;;;;;;;14.00;14.00;;;;;30.02;46.38;101357.84;5097835;27;45338;-76
2023/09/10 05:57:18;;;;;;;;;14.33;13.00;;;;;30.01;46.35;101350.81;5116112;27;47003;-76
2023/09/10 05:59:43;;;;;;;;;13.67;12.67;;;;;30.03;46.18;101359.47;5119539;27;45363;-76
2023/09/10 06:02:09;;;;;;;;;12.33;12.33;;;;;30.02;46.16;101357.00;5119324;27;45427;-76
2023/09/10 06:04:34;;;;;;;;;12.67;12.67;;;;;30.04;46.24;101361.13;5118514;27;45340;-76
2023/09/10 06:07:03;;;;;;;;;14.67;14.67;;;;;30.05;46.13;101367.31;5101063;27;47668;-77
2023/09/10 06:09:30;;;;;;;;;13.00;13.00;;;;;30.07;46.35;101363.34;5119662;27;45395;-76
2023/09/10 06:11:56;;;;;;;;;13.67;13.67;;;;;30.05;46.48;101364.63;5119312;27;45269;-76
2023/09/10 06:14:21;;;;;;;;;14.33;12.33;;;;;30.03;46.34;101359.47;5119378;27;45335;-75
2023/09/10 06:16:47;;;;;;;;;12.33;11.00;;;;;30.03;46.11;101356.78;5119512;27;46389;-76
2023/09/10 06:19:12;;;;;;;;;13.33;12.67;;;;;30.08;46.42;101361.50;5119696;27;45278;-75
2023/09/10 06:21:37;;;;;;;;;13.00;13.00;;;;;30.04;46.27;101365.66;5101263;27;45599;-76
2023/09/10 06:24:03;;;;;;;;;13.67;13.00;;;;;30.07;45.89;101365.22;5119549;27;45380;-76
2023/09/10 06:26:29;;;;;;;;;12.00;12.00;;;;;30.06;46.32;101360.88;5118883;27;46231;-75
2023/09/10 06:28:54;;;;;;;;;12.00;11.33;;;;;30.09;46.16;101378.38;5118304;27;45313;-76
2023/09/10 06:31:19;;;;;;;;;16.67;15.00;;;;;30.07;46.28;101371.41;5119408;27;45323;-76
2023/09/10 06:33:45;;;;;;;;;14.33;14.33;;;;;30.12;46.50;101386.81;5119429;27;45506;-76
2023/09/10 06:36:10;;;;;;;;;13.00;13.00;;;;;30.11;46.23;101376.34;5100569;27;47192;-76
2023/09/10 06:38:36;;;;;;;;;12.33;11.67;;;;;30.12;46.28;101378.78;5100456;27;45445;-76
2023/09/10 06:41:01;;;;;;;;;14.67;13.33;;;;;30.15;46.12;101386.38;5118912;27;45494;-76
2023/09/10 06:43:26;;;;;;;;;12.33;12.33;;;;;30.09;46.46;101370.34;5119362;27;45603;-77
2023/09/10 06:45:52;;;;;;;;;14.00;13.67;;;;;30.09;46.29;101368.50;5117906;27;46417;-76
2023/09/10 06:48:18;;;;;;;;;10.67;10.67;;;;;30.01;45.91;101355.38;5117861;27;45381;-76
2023/09/10 06:50:44;;;;;;;;;15.00;13.00;;;;;30.14;46.22;101374.00;5118982;27;45416;-76
2023/09/10 06:53:09;;;;;;;;;13.33;13.00;;;;;30.12;45.96;101386.00;5118234;27;45608;-76
2023/09/10 06:55:34;;;;;;;;;13.67;13.67;;;;;30.15;46.03;101369.47;5117304;27;47505;-77
2023/09/10 06:57:59;;;;;;;;;11.33;11.33;;;;;30.15;46.63;101374.84;5118744;27;45351;-76
2023/09/10 07:00:25;;;;;;;;;15.33;13.67;;;;;30.13;46.35;101375.06;5118829;27;45464;-76
2023/09/10 07:02:50;;;;;;;;;13.67;13.00;;;;;30.13;45.98;101377.75;5100184;27;45803;-77
2023/09/10 07:05:16;;;;;;;;;13.00;13.00;;;;;30.16;46.34;101387.22;5118735;27;45361;-76
2023/09/10 07:07:42;;;;;;;;;12.00;11.67;;;;;30.10;46.49;101372.81;5118707;27;45340;-76
2023/09/10 07:10:07;;;;;;;;;13.00;13.00;;;;;30.12;46.30;101378.78;5098192;27;45426;-77
2023/09/10 07:12:33;;;;;;;;;15.67;11.67;;;;;30.11;46.21;101382.50;5118396;27;45402;-76
2023/09/10 07:14:58;;;;;;;;;12.33;12.33;;;;;30.16;45.65;101379.16;5100202;27;46393;-76
2023/09/10 07:17:23;;;;;;;;;14.33;11.67;;;;;30.16;46.07;101371.91;5118114;27;45418;-76
2023/09/10 07:19:49;;;;;;;;;13.67;13.67;;;;;30.16;45.84;101376.47;5100350;27;45455;-76
2023/09/10 07:22:14;;;;;;;;;11.00;10.33;;;;;30.21;46.44;101383.84;5118444;27;45598;-76
2023/09/10 07:24:40;;;;;;;;;12.33;12.33;;;;;30.13;45.67;101368.88;5099435;27;46198;-77
2023/09/10 07:27:05;;;;;;;;;11.67;11.67;;;;;30.22;46.35;101377.44;5117743;27;45387;-77
2023/09/10 07:29:31;;;;;;;;;12.00;12.00;;;;;30.17;46.00;101364.69;5118469;27;45340;-77
2023/09/10 07:31:56;;;;;;;;;13.00;12.33;;;;;30.19;46.01;101370.66;5118205;27;45335;-77
2023/09/10 07:34:21;;;;;;;;;11.67;11.67;;;;;30.18;46.02;101364.47;5118394;27;46657;-77
2023/09/10 07:36:47;;;;;;;;;12.00;12.00;;;;;30.21;45.65;101370.44;5118336;27;45390;-77
2023/09/10 07:39:13;;;;;;;;;11.00;11.00;;;;;30.21;45.73;101365.91;5098649;27;45337;-77
2023/09/10 07:41:39;;;;;;;;;12.00;10.67;;;;;30.18;45.92;101363.66;5096377;27;45728;-77
2023/09/10 07:44:04;;;;;;;;;10.67;10.67;;;;;30.23;46.10;101366.50;5097383;27;47211;-76
2023/09/10 07:46:30;;;;;;;;;13.67;11.33;;;;;30.21;46.41;101367.75;5079342;27;45435;-77
2023/09/10 07:48:55;;;;;;;;;10.33;10.33;;;;;30.21;45.87;101370.44;5097154;27;45396;-77
2023/09/10 07:51:21;;;;;;;;;13.33;12.00;;;;;30.24;45.82;101376.16;5078965;27;45564;-77
2023/09/10 07:53:46;;;;;;;;;11.67;11.00;;;;;30.23;46.42;101377.22;5096922;27;47182;-77
2023/09/10 07:56:12;;;;;;;;;13.33;12.00;;;;;30.21;45.96;101367.75;5078989;27;45364;-77
2023/09/10 07:58:37;;;;;;;;;11.33;10.67;;;;;30.24;45.85;101360.06;5097460;27;45405;-78
2023/09/10 08:01:03;;;;;;;;;11.67;10.00;;;;;30.26;45.50;101363.38;5097377;27;45503;-77
2023/09/10 08:03:28;;;;;;;;;14.67;12.00;;;;;30.24;45.66;101357.38;5097201;27;46534;-77
2023/09/10 08:05:54;;;;;;;;;10.67;10.67;;;;;30.22;46.18;101359.47;5097327;27;45343;-77
2023/09/10 08:08:20;;;;;;;;;12.00;12.00;;;;;30.28;45.75;101357.75;5095763;27;45330;-77
2023/09/10 08:10:46;;;;;;;;;11.00;11.00;;;;;30.29;45.63;101364.78;5096381;27;45245;-77
2023/09/10 08:13:14;;;;;;;;;14.00;13.33;;;;;30.23;45.37;101349.56;5102578;27;46218;-83
2023/09/10 08:15:40;;;;;;;;;14.00;14.00;;;;;30.25;45.80;101353.66;5116190;27;45719;-79
2023/09/10 08:18:10;;;;;;;;;11.00;11.00;;;;;30.32;45.62;101355.47;5116954;27;45442;-79
2023/09/10 08:20:39;;;;;;;;;11.67;11.00;;;;;30.34;45.59;101350.72;5098450;27;45459;-81
2023/09/10 08:23:05;;;;;;;;;11.33;11.00;;;;;30.32;45.83;101342.03;5098371;27;46448;-84
2023/09/10 08:25:31;;;;;;;;;11.33;11.33;;;;;30.30;45.84;101347.63;5098833;27;45397;-78
2023/09/10 08:27:57;;;;;;;;;13.00;13.00;;;;;30.38;45.72;101365.31;5117583;27;45418;-77
2023/09/10 08:30:22;;;;;;;;;10.67;10.00;;;;;30.36;45.31;101360.16;5117545;27;45447;-80
2023/09/10 08:32:49;;;;;;;;;15.00;13.33;;;;;30.42;45.83;101365.69;5114695;27;46077;-79
2023/09/10 08:35:18;;;;;;;;;13.00;10.67;;;;;30.38;45.84;101355.38;5106708;27;45469;-80
2023/09/10 08:37:43;;;;;;;;;11.33;11.33;;;;;30.37;45.81;101345.69;5077727;27;45372;-79
2023/09/10 08:40:10;;;;;;;;;10.50;10.50;;;;;30.43;45.91;101360.09;5096338;27;45357;-82
2023/09/10 08:42:39;;;;;;;;;13.33;12.00;;;;;30.43;45.74;101364.63;5110607;27;45445;-78
2023/09/10 08:45:10;;;;;;;;;12.00;12.00;;;;;30.41;45.58;101362.19;5117048;27;45322;-78
2023/09/10 08:47:40;;;;;;;;;10.33;10.33;;;;;30.29;45.90;101346.78;5117103;27;45329;-78
2023/09/10 08:50:11;;;;;;;;;15.33;13.67;;;;;30.42;45.33;101371.84;5117085;27;45335;-79
2023/09/10 08:52:41;;;;;;;;;11.67;9.67;;;;;30.43;45.71;101376.19;5116244;27;46993;-79
2023/09/10 08:55:08;;;;;;;;;11.67;11.33;;;;;30.40;45.46;101372.09;5116985;27;45298;-78
2023/09/10 08:57:38;;;;;;;;;14.67;13.00;;;;;30.41;45.95;101367.53;5117108;27;45351;-78
2023/09/10 09:00:14;;;;;;;;;11.67;11.67;;;;;30.40;45.45;101376.63;5117150;27;45355;-78
2023/09/10 09:02:43;;;;;;;;;10.33;9.67;;;;;30.33;45.75;101368.66;5116060;27;45598;-79
2023/09/10 09:05:10;;;;;;;;;14.00;11.00;;;;;30.42;45.56;101379.09;5112440;27;45342;-78
2023/09/10 09:07:54;;;;;;;;;11.33;11.00;;;;;30.39;45.59;101375.00;5116562;27;45312;-78
2023/09/10 09:10:24;;;;;;;;;11.00;11.00;;;;;30.40;45.85;101371.25;5116923;27;45393;-79
2023/09/10 09:12:57;;;;;;;;;10.67;10.67;;;;;30.36;45.59;101368.22;5116563;27;45442;-79
2023/09/10 09:15:24;;;;;;;;;13.33;12.33;;;;;30.32;45.75;101361.63;5116709;27;45455;-79
2023/09/10 09:17:50;;;;;;;;;12.00;11.00;;;;;30.33;45.32;101366.00;5116924;27;45357;-78
2023/09/10 09:20:18;;;;;;;;;11.33;11.33;;;;;30.40;45.52;101376.63;5116868;27;45454;-79
2023/09/10 09:22:48;;;;;;;;;13.33;13.00;;;;;30.35;45.96;101361.22;5116299;27;46586;-78
2023/09/10 09:25:14;;;;;;;;;10.33;10.33;;;;;30.40;45.76;101371.25;5116746;27;45277;-78
2023/09/10 09:27:41;;;;;;;;;10.67;10.67;;;;;30.42;45.33;101369.16;5098069;27;45351;-78
2023/09/10 09:30:07;;;;;;;;;12.33;12.33;;;;;30.40;45.65;101364.03;5116667;27;45362;-78
2023/09/10 09:32:35;;;;;;;;;10.33;10.33;;;;;30.33;45.98;101354.44;5116815;27;47177;-78
2023/09/10 09:35:02;;;;;;;;;12.00;10.00;;;;;30.21;45.40;101333.69;5119405;27;45278;-78
2023/09/10 09:37:31;;;;;;;;;13.33;10.33;;;;;30.40;45.53;101361.34;5119330;27;45361;-79
2023/09/10 09:39:56;;;;;;;;;10.67;9.00;;;;;30.42;45.69;101365.69;5119677;27;45288;-78
2023/09/10 09:42:23;;;;;;;;;10.33;10.33;;;;;30.43;45.43;101360.09;5118165;27;47669;-78
2023/09/10 09:44:48;;;;;;;;;9.33;9.33;;;;;30.34;45.55;101342.66;5119054;27;45554;-78
2023/09/10 09:47:14;;;;;;;;;12.00;12.00;;;;;30.40;45.64;101353.28;5101364;27;45361;-78
2023/09/10 09:49:47;;;;;;;;;13.33;12.67;;;;;30.39;45.62;101346.28;5118685;27;45378;-79
2023/09/10 09:52:12;;;;;;;;;9.00;9.00;;;;;30.42;45.46;101345.00;5118997;27;45542;-79
2023/09/10 09:54:39;;;;;;;;;13.00;11.00;;;;;30.42;45.82;101349.56;5119778;27;45355;-79
2023/09/10 09:57:08;;;;;;;;;9.33;9.33;;;;;30.38;45.72;101333.09;5120207;27;45305;-78
2023/09/10 09:59:36;;;;;;;;;10.67;10.67;;;;;30.39;45.55;101348.16;5119916;27;45440;-78
2023/09/10 10:02:03;;;;;;;;;10.33;10.33;;;;;30.42;45.33;101354.94;5118389;27;46368;-78
2023/09/10 10:04:31;;;;;;;;;11.00;11.00;;;;;30.45;45.60;101352.63;5118337;27;45375;-79
2023/09/10 10:06:57;;;;;;;;;10.00;10.00;;;;;30.43;45.64;101341.28;5119765;27;45395;-79
2023/09/10 10:09:22;;;;;;;;;11.33;10.33;;;;;30.43;45.36;101340.47;5119581;27;45273;-78
2023/09/10 10:11:48;;;;;;;;;10.67;10.67;;;;;30.46;45.27;101340.00;5101100;27;45611;-78
2023/09/10 10:14:14;;;;;;;;;11.00;10.00;;;;;30.44;45.51;101340.25;5100912;27;45367;-79
2023/09/10 10:16:40;;;;;;;;;12.67;11.33;;;;;30.46;45.51;101345.38;5118917;27;45311;-78
2023/09/10 10:19:06;;;;;;;;;9.67;9.67;;;;;30.46;45.36;101329.28;5119380;27;45354;-78
2023/09/10 10:21:32;;;;;;;;;9.33;9.33;;;;;30.44;45.52;101329.53;5119462;27;46277;-78
2023/09/10 10:23:58;;;;;;;;;11.00;11.00;;;;;30.46;45.44;101340.84;5100822;27;46580;-78
2023/09/10 10:26:24;;;;;;;;;11.33;11.33;;;;;30.47;45.57;101342.47;5119417;27;45345;-78
2023/09/10 10:28:50;;;;;;;;;8.00;7.33;;;;;30.45;45.67;101333.81;5118039;27;45344;-79
2023/09/10 10:31:18;;;;;;;;;10.00;10.00;;;;;30.47;45.53;101333.63;5119257;27;45388;-79
2023/09/10 10:33:56;;;;;;;;;9.33;8.00;;;;;30.49;45.50;101332.34;5118916;27;45343;-78
2023/09/10 10:36:37;;;;;;;;;10.67;10.67;;;;;30.49;45.70;101331.53;5119339;27;45241;-78
2023/09/10 10:39:09;;;;;;;;;9.00;9.00;;;;;30.49;45.52;101331.53;5119273;27;45348;-78
2023/09/10 10:41:37;;;;;;;;;9.00;9.00;;;;;30.45;45.29;101316.88;5118931;27;46235;-77
2023/09/10 10:44:24;;;;;;;;;11.33;11.00;;;;;30.46;45.16;101316.69;5119010;27;45350;-78
2023/09/10 10:47:13;;;;;;;;;12.00;11.00;;;;;30.45;45.55;101314.22;5118701;27;45377;-78
2023/09/10 10:49:49;;;;;;;;;9.00;9.00;;;;;30.48;45.87;101316.44;5118246;27;45299;-78
2023/09/10 10:52:17;;;;;;;;;11.33;11.33;;;;;30.50;45.31;101320.53;5118794;27;46531;-78
2023/09/10 10:54:43;;;;;;;;;10.67;10.00;;;;;30.48;45.59;101303.03;5118838;27;45480;-79
2023/09/10 10:57:09;;;;;;;;;11.33;10.33;;;;;30.49;45.62;101304.66;5119003;27;45406;-78
2023/09/10 10:59:35;;;;;;;;;10.67;10.67;;;;;30.52;45.03;101307.69;5118909;27;45407;-78
2023/09/10 11:02:15;;;;;;;;;9.00;9.00;;;;;30.39;45.33;101287.22;5099538;27;45518;-77
2023/09/10 11:05:02;;;;;;;;;12.00;10.00;;;;;30.48;45.19;101294.97;5118658;27;45372;-78
2023/09/10 11:07:29;;;;;;;;;11.00;10.67;;;;;30.44;45.40;101283.88;5118860;27;45408;-77
2023/09/10 11:09:57;;;;;;;;;10.33;10.33;;;;;30.50;45.35;101292.88;5118629;27;45318;-78